Time;durP1;ratioP1;P1;durP2;ratioP2;P2;SDS_P1;SDS_P2;PMS_P1;PMS_P2;Temp;Humidity;BMP_temperature;BMP_pressure;BME280_temperature;BME280_humidity;BME280_pressure;Samples;Min_cycle;Max_cycle;Signal;HPM_P1;HPM_P2
2020/12/16 00:02:08;;;;;;;85.10;39.50;;;;;;;1.55;85.23;100579.44;130413;1089;24241;-63
2020/12/16 00:04:41;;;;;;;91.67;41.73;;;;;;;1.55;84.59;100575.91;130299;1090;23220;-63
2020/12/16 00:07:08;;;;;;;92.87;42.70;;;;;;;1.55;84.47;100582.12;130498;1096;23219;-63
2020/12/16 00:09:37;;;;;;;93.87;42.90;;;;;;;1.55;84.99;100582.12;130441;1089;23178;-64
2020/12/16 00:12:04;;;;;;;104.07;45.53;;;;;;;1.54;85.20;100577.75;130324;1089;23223;-63
2020/12/16 00:14:32;;;;;;;91.73;39.00;;;;;;;1.57;84.87;100582.78;130471;1090;25000;-63
2020/12/16 00:17:00;;;;;;;102.60;44.45;;;;;;;1.57;84.15;100576.58;126907;1090;23514;-63
2020/12/16 00:19:27;;;;;;;69.60;29.93;;;;;;;1.56;84.28;100569.53;125976;1095;23350;-62
2020/12/16 00:21:58;;;;;;;64.10;30.30;;;;;;;1.57;84.32;100574.73;125950;1090;23377;-62
2020/12/16 00:24:26;;;;;;;58.87;29.07;;;;;;;1.55;85.08;100573.22;126043;1090;23510;-62
2020/12/16 00:26:54;;;;;;;61.77;30.13;;;;;;;1.53;85.10;100575.23;130264;1090;23209;-63
2020/12/16 00:29:24;;;;;;;66.77;32.97;;;;;;;1.50;85.06;100576.42;130430;1090;23252;-63
2020/12/16 00:31:52;;;;;;;63.20;30.90;;;;;;;1.48;84.41;100572.23;130291;1090;23239;-63
2020/12/16 00:34:19;;;;;;;57.23;28.90;;;;;;;1.46;84.03;100579.61;130438;1090;23297;-63
2020/12/16 00:36:46;;;;;;;53.77;29.00;;;;;;;1.43;85.08;100575.45;130287;1090;23175;-63
2020/12/16 00:39:14;;;;;;;62.90;26.30;;;;;;;1.41;84.48;100575.63;130468;1095;23178;-63
2020/12/16 00:41:43;;;;;;;46.43;24.93;;;;;;;1.39;83.85;100568.75;130294;1096;23275;-63
2020/12/16 00:44:10;;;;;;;46.20;22.25;;;;;;;1.41;84.87;100572.09;130527;1090;23200;-64
2020/12/16 00:46:38;;;;;;;67.30;25.65;;;;;;;1.44;84.06;100574.45;130049;1093;23302;-62
2020/12/16 00:49:05;;;;;;;129.37;40.77;;;;;;;1.45;84.27;100570.72;130479;1090;23312;-63
2020/12/16 00:51:33;;;;;;;98.73;37.17;;;;;;;1.47;84.53;100570.55;130121;1090;23157;-63
2020/12/16 00:54:01;;;;;;;71.20;28.50;;;;;;;1.47;84.75;100566.02;130220;1090;23198;-63
2020/12/16 00:56:28;;;;;;;57.33;26.70;;;;;;;1.47;84.47;100573.23;130320;1090;23171;-63
2020/12/16 00:58:58;;;;;;;104.97;43.43;;;;;;;1.46;83.95;100569.71;130204;1090;23252;-63
2020/12/16 01:01:29;;;;;;;115.37;47.40;;;;;;;1.48;83.89;100565.01;130377;1089;23187;-63
2020/12/16 01:03:56;;;;;;;64.85;31.90;;;;;;;1.47;84.96;100557.96;130147;1090;24110;-63
2020/12/16 01:06:26;;;;;;;74.05;33.30;;;;;;;1.45;83.74;100559.14;130261;1090;23862;-63
2020/12/16 01:08:53;;;;;;;49.90;25.10;;;;;;;1.47;84.82;100551.75;130306;1089;23250;-63
2020/12/16 01:11:20;;;;;;;99.83;37.43;;;;;;;1.51;84.83;100558.46;130272;1090;23161;-63
2020/12/16 01:13:47;;;;;;;72.07;29.23;;;;;;;1.53;84.48;100556.44;130099;1090;23211;-63
2020/12/16 01:16:16;;;;;;;67.03;27.27;;;;;;;1.52;83.63;100552.08;128473;1095;26516;-63
2020/12/16 01:18:44;;;;;;;52.77;25.70;;;;;;;1.53;83.92;100554.59;125884;1090;23321;-62
2020/12/16 01:21:18;;;;;;;48.80;26.30;;;;;;;1.53;84.73;100554.59;125891;1090;23389;-62
2020/12/16 01:23:48;;;;;;;55.20;27.20;;;;;;;1.53;84.54;100549.22;125748;1093;23394;-62
2020/12/16 01:26:16;;;;;;;42.30;22.00;;;;;;;1.51;84.28;100545.87;125993;1090;23378;-62
2020/12/16 01:28:53;;;;;;;37.98;20.50;;;;;;;1.48;83.90;100546.21;130252;1095;23285;-64
2020/12/16 01:31:20;;;;;;;40.20;21.13;;;;;;;1.46;84.00;100553.59;130280;1090;23171;-64
2020/12/16 01:33:54;;;;;;;41.07;22.80;;;;;;;1.40;84.03;100539.04;130155;1090;23246;-64
2020/12/16 01:36:39;;;;;;;63.87;31.20;;;;;;;1.43;84.63;100540.55;130241;1090;24094;-64
2020/12/16 01:39:08;;;;;;;70.77;31.80;;;;;;;1.44;83.57;100539.53;130295;1090;23147;-64
2020/12/16 01:41:56;;;;;;;60.87;27.17;;;;;;;1.47;83.99;100527.59;130249;1090;23249;-64
2020/12/16 01:44:30;;;;;;;47.10;22.83;;;;;;;1.47;84.03;100530.27;130090;1096;23277;-64
2020/12/16 01:47:02;;;;;;;143.60;50.90;;;;;;;1.48;83.79;100532.78;130216;1090;23229;-64
2020/12/16 01:49:36;;;;;;;84.93;36.00;;;;;;;1.47;83.64;100531.11;130078;1090;23772;-64
2020/12/16 01:52:06;;;;;;;47.23;23.90;;;;;;;1.45;83.97;100521.55;130305;1097;23199;-64
2020/12/16 01:54:40;;;;;;;92.05;39.80;;;;;;;1.44;84.70;100519.91;130073;1090;23198;-64
2020/12/16 01:57:13;;;;;;;60.27;28.83;;;;;;;1.38;83.83;100518.74;130203;1090;23332;-64
2020/12/16 01:59:48;;;;;;;47.27;23.90;;;;;;;1.34;84.22;100522.77;130095;1097;23205;-64
2020/12/16 02:02:23;;;;;;;45.27;23.60;;;;;;;1.30;84.37;100524.16;130256;1093;23316;-64
2020/12/16 02:04:51;;;;;;;44.67;22.70;;;;;;;1.22;84.27;100506.22;130105;1090;24244;-64
2020/12/16 02:07:19;;;;;;;50.57;23.97;;;;;;;1.32;84.16;100520.27;130229;1093;23181;-64
2020/12/16 02:09:47;;;;;;;43.27;23.60;;;;;;;1.33;84.51;100521.09;130116;1092;23307;-64
2020/12/16 02:12:22;;;;;;;44.67;22.77;;;;;;;1.32;83.72;100525.63;130249;1090;24156;-64
2020/12/16 02:14:52;;;;;;;40.73;21.93;;;;;;;1.32;83.63;100524.80;130113;1090;23214;-64
2020/12/16 02:17:20;;;;;;;44.35;23.60;;;;;;;1.30;84.12;100516.10;130242;1089;23180;-64
2020/12/16 02:19:59;;;;;;;44.37;23.87;;;;;;;1.26;83.78;100512.92;130089;1090;24124;-64
2020/12/16 02:22:27;;;;;;;42.83;23.63;;;;;;;1.24;84.13;100517.63;130248;1090;23320;-64
2020/12/16 02:25:11;;;;;;;42.87;23.17;;;;;;;1.13;84.48;100498.37;130175;1097;24501;-64
2020/12/16 02:27:45;;;;;;;51.80;27.05;;;;;;;1.21;84.81;100517.12;130260;1090;23290;-69
2020/12/16 02:30:18;;;;;;;50.05;25.70;;;;;;;1.17;84.71;100505.89;130083;1093;23327;-69
2020/12/16 02:33:04;;;;;;;48.83;23.90;;;;;;;1.16;84.61;100511.42;130278;1097;23191;-68
2020/12/16 02:35:37;;;;;;;55.25;24.15;;;;;;;1.15;83.93;100515.15;130119;1093;23233;-69
2020/12/16 02:38:14;;;;;;;54.58;23.18;;;;;;;1.14;83.67;100521.52;130229;1090;24485;-69
2020/12/16 02:40:44;;;;;;;56.10;26.30;;;;;;;1.13;84.39;100515.32;130070;1097;23223;-68
2020/12/16 02:43:13;;;;;;;47.40;24.97;;;;;;;1.14;83.98;100513.47;130197;1093;23172;-69
2020/12/16 02:45:42;;;;;;;46.60;25.23;;;;;;;1.15;84.20;100512.47;130240;1090;23237;-69
2020/12/16 02:48:13;;;;;;;56.30;27.73;;;;;;;1.15;85.16;100515.15;130215;1096;23183;-68
2020/12/16 02:50:43;;;;;;;48.10;25.20;;;;;;;1.15;84.84;100512.47;130211;1093;23186;-68
2020/12/16 02:53:11;;;;;;;52.13;25.80;;;;;;;1.13;85.02;100514.48;130136;1090;23162;-69
2020/12/16 02:56:07;;;;;;;62.90;27.93;;;;;;;1.11;85.24;100514.65;128368;1097;23402;-64
2020/12/16 02:58:49;;;;;;;61.33;25.40;;;;;;;1.13;84.48;100504.58;126027;1089;23409;-63
2020/12/16 03:01:17;;;;;;;49.30;23.07;;;;;;;1.14;84.17;100508.10;130388;1095;23214;-64
2020/12/16 03:04:03;;;;;;;54.47;25.37;;;;;;;1.13;85.18;100501.90;130470;1095;23273;-65
2020/12/16 03:06:51;;;;;;;51.40;24.63;;;;;;;1.14;85.16;100500.05;130130;1090;23692;-64
2020/12/16 03:09:25;;;;;;;52.80;25.00;;;;;;;1.14;84.75;100506.26;130295;1096;23213;-64
2020/12/16 03:11:55;;;;;;;52.70;26.55;;;;;;;1.14;84.76;100506.26;130226;1090;23160;-64
2020/12/16 03:14:28;;;;;;;65.10;30.60;;;;;;;1.14;84.25;100505.42;130410;1090;23223;-64
2020/12/16 03:16:57;;;;;;;60.03;29.37;;;;;;;1.14;85.05;100511.63;130216;1096;23150;-64
2020/12/16 03:19:30;;;;;;;63.55;30.10;;;;;;;1.15;84.80;100507.94;130442;1090;23298;-64
2020/12/16 03:21:58;;;;;;;63.80;28.20;;;;;;;1.17;84.73;100510.42;130358;1090;23204;-64
2020/12/16 03:24:39;;;;;;;57.47;26.07;;;;;;;1.18;83.95;100512.94;130495;1090;23862;-64
2020/12/16 03:27:25;;;;;;;56.57;23.50;;;;;;;1.21;85.25;100512.59;130416;1089;23153;-69
2020/12/16 03:29:59;;;;;;;53.93;23.97;;;;;;;1.23;85.34;100504.38;130447;1089;23189;-68
2020/12/16 03:32:55;;;;;;;58.00;24.10;;;;;;;1.24;84.68;100509.56;130247;1090;23255;-69
2020/12/16 03:35:38;;;;;;;58.13;27.03;;;;;;;1.25;84.71;100505.88;130382;1089;23235;-69
2020/12/16 03:38:08;;;;;;;55.93;26.23;;;;;;;1.26;85.43;100509.40;130172;1090;23285;-68
2020/12/16 03:40:37;;;;;;;58.40;25.13;;;;;;;1.26;84.84;100510.23;130446;1095;23156;-69
2020/12/16 03:43:05;;;;;;;56.00;24.77;;;;;;;1.27;85.14;100511.08;130238;1090;23243;-69
2020/12/16 03:45:34;;;;;;;61.05;27.65;;;;;;;1.28;84.62;100518.12;130446;1090;23274;-69
2020/12/16 03:48:02;;;;;;;58.00;25.40;;;;;;;1.28;84.64;100518.12;130451;1090;24166;-68
2020/12/16 03:50:33;;;;;;;60.30;26.95;;;;;;;1.25;83.99;100523.83;130409;1089;23173;-69
2020/12/16 03:53:01;;;;;;;67.50;26.00;;;;;;;1.24;83.72;100522.98;130415;1096;23162;-69
2020/12/16 03:55:53;;;;;;;59.10;22.27;;;;;;;1.27;84.72;100519.13;130386;1089;23196;-68
2020/12/16 03:58:47;;;;;;;54.73;23.27;;;;;;;1.27;84.09;100519.13;130300;1089;23168;-69
2020/12/16 04:01:21;;;;;;;39.40;21.65;;;;;;;1.28;84.74;100531.55;130422;1090;23150;-68
2020/12/16 04:03:49;;;;;;;42.07;22.43;;;;;;;1.28;84.02;100521.64;130349;1089;23220;-69
2020/12/16 04:06:27;;;;;;;43.50;21.15;;;;;;;1.27;84.25;100522.65;130395;1090;24342;-64
2020/12/16 04:08:55;;;;;;;54.00;23.45;;;;;;;1.27;84.19;100527.18;130269;1095;23165;-64
2020/12/16 04:11:37;;;;;;;50.20;24.97;;;;;;;1.26;83.72;100523.66;130263;1090;23180;-64
2020/12/16 04:14:16;;;;;;;46.73;22.93;;;;;;;1.28;83.71;100529.70;130095;1090;23858;-64
2020/12/16 04:16:45;;;;;;;48.90;26.00;;;;;;;1.26;84.21;100520.14;130412;1095;23215;-64
2020/12/16 04:19:17;;;;;;;53.85;23.15;;;;;;;1.26;84.12;100522.81;130464;1090;24153;-64
2020/12/16 04:21:47;;;;;;;49.45;22.05;;;;;;;1.25;84.08;100519.30;130355;1090;23190;-64
2020/12/16 04:24:16;;;;;;;48.80;20.67;;;;;;;1.24;84.29;100524.84;130458;1090;23169;-64
2020/12/16 04:26:55;;;;;;;118.05;51.30;;;;;;;1.23;84.33;100531.21;130308;1090;23209;-64
2020/12/16 04:29:22;;;;;;;114.53;53.50;;;;;;;1.22;83.95;100532.22;130441;1096;23239;-64
2020/12/16 04:31:51;;;;;;;75.77;36.17;;;;;;;1.23;83.96;100531.21;130307;1089;23199;-64
2020/12/16 04:34:21;;;;;;;65.87;30.57;;;;;;;1.22;83.75;100530.38;130421;1090;23232;-63
2020/12/16 04:36:50;;;;;;;58.20;26.20;;;;;;;1.24;83.91;100528.36;127183;1090;26882;-69
2020/12/16 04:39:19;;;;;;;42.23;22.83;;;;;;;1.24;83.98;100531.05;130375;1089;23474;-67
2020/12/16 04:41:51;;;;;;;57.60;30.15;;;;;;;1.23;83.69;100533.90;130250;1090;24233;-67
2020/12/16 04:44:19;;;;;;;60.10;33.43;;;;;;;1.20;83.31;100536.92;130501;1090;23212;-67
2020/12/16 04:46:59;;;;;;;44.47;23.90;;;;;;;1.19;84.26;100535.24;130124;1090;23299;-67
2020/12/16 04:49:34;;;;;;;42.10;22.50;;;;;;;1.21;84.34;100542.12;130377;1096;23197;-67
2020/12/16 04:52:02;;;;;;;34.87;18.90;;;;;;;1.23;83.93;100541.95;130124;1093;23850;-67
2020/12/16 04:54:53;;;;;;;34.25;17.75;;;;;;;1.26;84.25;100546.98;130412;1090;23220;-67
2020/12/16 04:57:23;;;;;;;36.03;19.67;;;;;;;1.24;84.34;100539.09;130157;1090;23169;-67
2020/12/16 04:59:56;;;;;;;43.53;23.97;;;;;;;1.24;84.19;100546.31;130434;1089;23227;-67
2020/12/16 05:02:59;;;;;;;51.07;23.33;;;;;;;1.25;83.45;100547.98;130319;1090;23197;-67
2020/12/16 05:05:53;;;;;;;70.95;35.50;;;;;;;1.23;83.85;100552.69;129232;1093;23382;-69
2020/12/16 05:08:20;;;;;;;71.00;35.20;;;;;;;1.21;83.38;100560.07;126075;1090;23949;-69
2020/12/16 05:10:49;;;;;;;53.75;29.05;;;;;;;1.19;83.91;100548.66;126100;1090;26743;-69
2020/12/16 05:13:19;;;;;;;50.60;25.70;;;;;;;1.17;84.09;100550.67;130342;1090;23247;-67
2020/12/16 05:15:47;;;;;;;47.00;24.27;;;;;;;1.16;83.46;100546.31;130526;1089;23204;-67
2020/12/16 05:18:16;;;;;;;40.30;22.50;;;;;;;1.17;83.61;100545.31;130350;1089;23219;-67
2020/12/16 05:20:55;;;;;;;59.60;26.00;;;;;;;1.18;83.00;100534.41;130540;1095;23288;-67
2020/12/16 05:23:27;;;;;;;56.50;28.47;;;;;;;1.18;82.93;100539.77;130361;1090;23160;-67
2020/12/16 05:26:09;;;;;;;56.55;31.00;;;;;;;1.19;83.44;100537.92;130502;1090;24116;-67
2020/12/16 05:28:45;;;;;;;48.80;27.13;;;;;;;1.18;83.66;100541.62;130347;1095;23323;-67
2020/12/16 05:31:13;;;;;;;52.20;26.40;;;;;;;1.16;83.60;100524.84;130518;1090;23281;-67
2020/12/16 05:33:45;;;;;;;44.25;19.85;;;;;;;1.15;83.95;100533.94;130364;1090;23213;-67
2020/12/16 05:36:13;;;;;;;51.47;22.97;;;;;;;1.13;82.91;100527.90;130475;1090;23353;-62
2020/12/16 05:38:53;;;;;;;52.10;22.50;;;;;;;1.13;84.02;100531.42;130141;1090;23209;-62
2020/12/16 05:41:31;;;;;;;50.70;22.95;;;;;;;1.16;83.18;100533.73;130494;1095;24437;-62
2020/12/16 05:44:15;;;;;;;57.53;25.13;;;;;;;1.19;83.82;100527.19;130331;1090;23290;-62
2020/12/16 05:46:43;;;;;;;39.87;18.97;;;;;;;1.23;83.28;100528.53;130408;1090;24570;-62
2020/12/16 05:49:26;;;;;;;38.90;19.47;;;;;;;1.24;83.84;100533.73;130389;1095;23226;-62
2020/12/16 05:51:57;;;;;;;40.13;21.47;;;;;;;1.25;83.21;100534.56;130526;1090;23840;-62
2020/12/16 05:54:24;;;;;;;42.93;24.40;;;;;;;1.27;83.69;100532.55;130341;1089;24004;-62
2020/12/16 05:57:18;;;;;;;36.05;20.80;;;;;;;1.27;82.93;100532.55;130528;1090;23212;-62
2020/12/16 06:00:10;;;;;;;31.57;17.30;;;;;;;1.25;83.02;100531.87;130312;1089;24090;-62
2020/12/16 06:02:41;;;;;;;35.10;16.70;;;;;;;1.21;82.44;100541.28;130486;1089;23488;-62
2020/12/16 06:05:11;;;;;;;55.30;25.30;;;;;;;1.19;83.24;100536.08;130348;1090;23161;-66
2020/12/16 06:07:40;;;;;;;51.90;24.73;;;;;;;1.18;82.65;100538.94;130500;1090;23280;-62
2020/12/16 06:10:09;;;;;;;83.43;33.60;;;;;;;1.22;82.54;100542.95;130213;1090;23165;-62
2020/12/16 06:12:39;;;;;;;60.47;27.10;;;;;;;1.23;83.00;100553.52;130535;1095;23304;-62
2020/12/16 06:15:13;;;;;;;63.15;28.85;;;;;;;1.24;82.80;100551.68;130333;1090;23219;-62
2020/12/16 06:17:45;;;;;;;70.30;29.70;;;;;;;1.25;82.18;100550.67;130504;1089;23232;-62
2020/12/16 06:20:16;;;;;;;83.90;34.77;;;;;;;1.26;82.67;100553.19;130334;1089;23205;-62
2020/12/16 06:22:47;;;;;;;95.40;42.55;;;;;;;1.28;82.87;100555.70;130387;1090;23187;-62
2020/12/16 06:25:16;;;;;;;61.43;26.77;;;;;;;1.27;82.37;100554.03;130341;1090;23254;-62
2020/12/16 06:27:48;;;;;;;35.55;19.45;;;;;;;1.26;81.81;100552.34;130487;1090;24154;-62
2020/12/16 06:30:28;;;;;;;;;;;;;;;1.23;82.64;100548.16;130381;1090;23195;-62
2020/12/16 06:33:15;;;;;;;61.57;27.83;;;;;;;1.20;81.94;100558.39;130420;1095;21933;-62
2020/12/16 06:35:43;;;;;;;50.78;23.30;;;;;;;1.16;82.25;100557.05;130290;1090;23249;-62
2020/12/16 06:38:18;;;;;;;47.65;23.95;;;;;;;1.17;81.99;100559.56;130380;1090;24623;-62
2020/12/16 06:40:47;;;;;;;42.37;19.00;;;;;;;1.18;81.66;100566.61;130373;1090;23163;-62
2020/12/16 06:43:30;;;;;;;28.60;15.23;;;;;;;1.20;81.31;100566.44;130486;1090;23272;-62
2020/12/16 06:46:24;;;;;;;29.60;16.37;;;;;;;1.21;82.21;100568.13;130356;1095;23226;-62
2020/12/16 06:48:52;;;;;;;30.80;17.50;;;;;;;1.19;81.13;100568.29;130514;1089;23201;-62
2020/12/16 06:51:21;;;;;;;28.70;15.57;;;;;;;1.19;81.83;100559.40;130312;1090;23187;-62
2020/12/16 06:54:03;;;;;;;26.55;16.20;;;;;;;1.20;82.09;100569.13;130469;1095;23232;-62
2020/12/16 06:56:39;;;;;;;23.83;14.33;;;;;;;1.18;81.60;100574.66;130331;1090;23910;-62
2020/12/16 06:59:06;;;;;;;25.00;13.97;;;;;;;1.16;82.03;100570.47;130504;1089;24151;-63
2020/12/16 07:01:34;;;;;;;24.75;14.25;;;;;;;1.19;81.36;100575.50;130384;1089;24582;-62
2020/12/16 07:04:01;;;;;;;23.80;12.60;;;;;;;1.22;81.82;100583.22;130352;1090;23174;-62
2020/12/16 07:06:30;;;;;;;22.97;12.80;;;;;;;1.25;81.21;100585.57;130334;1090;23169;-62
2020/12/16 07:09:12;;;;;;;21.03;12.57;;;;;;;1.27;81.07;100581.70;130514;1089;23172;-62
2020/12/16 07:11:40;;;;;;;23.30;12.80;;;;;;;1.24;80.70;100575.84;130387;1089;24332;-62
2020/12/16 07:14:15;;;;;;;30.75;16.35;;;;;;;1.25;81.01;100589.09;130507;1095;23173;-63
2020/12/16 07:16:44;;;;;;;39.17;20.40;;;;;;;1.24;80.87;100575.84;130332;1089;23199;-62
2020/12/16 07:19:27;;;;;;;35.90;20.30;;;;;;;1.22;81.20;100570.64;130482;1090;24707;-63
2020/12/16 07:21:55;;;;;;;24.80;15.13;;;;;;;1.20;81.18;100571.81;130387;1090;23169;-63
2020/12/16 07:24:23;;;;;;;19.00;11.93;;;;;;;1.18;81.26;100566.61;130462;1090;23249;-62
2020/12/16 07:26:53;;;;;;;26.05;14.35;;;;;;;1.18;80.10;100561.24;130347;1089;24018;-62
2020/12/16 07:29:30;;;;;;;24.15;14.05;;;;;;;1.21;81.16;100568.13;130458;1090;23260;-63
2020/12/16 07:32:12;;;;;;;22.33;13.53;;;;;;;1.20;80.73;100563.76;130367;1089;23244;-63
2020/12/16 07:34:57;;;;;;;20.27;11.60;;;;;;;1.21;80.00;100566.27;130528;1090;23294;-62
2020/12/16 07:37:31;;;;;;;26.05;16.00;;;;;;;1.23;80.27;100574.16;130369;1090;29304;-63
2020/12/16 07:40:10;;;;;;;22.73;14.10;;;;;;;1.23;79.99;100569.63;130468;1089;24190;-63
2020/12/16 07:42:38;;;;;;;22.73;11.97;;;;;;;1.23;79.56;100568.80;130356;1089;23233;-63
2020/12/16 07:45:09;;;;;;;20.57;12.00;;;;;;;1.24;79.22;100570.47;130490;1089;23982;-63
2020/12/16 07:47:37;;;;;;;30.70;17.85;;;;;;;1.24;80.36;100581.20;130312;1089;23264;-63
2020/12/16 07:50:10;;;;;;;23.43;14.63;;;;;;;1.24;79.50;100579.36;130478;1090;23188;-63
2020/12/16 07:52:37;;;;;;;19.73;12.77;;;;;;;1.25;79.38;100577.52;130353;1089;23956;-63
2020/12/16 07:55:13;;;;;;;21.17;13.90;;;;;;;1.26;79.86;100576.51;130521;1090;23215;-63
2020/12/16 07:57:41;;;;;;;39.70;21.50;;;;;;;1.25;79.90;100581.04;130488;1096;24388;-63
2020/12/16 08:00:09;;;;;;;22.67;13.13;;;;;;;1.28;79.59;100582.55;130312;1089;23136;-63
2020/12/16 08:02:46;;;;;;;22.67;14.53;;;;;;;1.29;79.64;100584.22;130468;1090;24184;-63
2020/12/16 08:05:14;;;;;;;20.57;11.90;;;;;;;1.30;78.95;100581.34;130380;1095;23213;-63
2020/12/16 08:07:41;;;;;;;22.07;12.53;;;;;;;1.33;79.85;100580.16;130483;1090;24431;-63
2020/12/16 08:10:09;;;;;;;30.23;15.10;;;;;;;1.36;79.81;100574.45;130365;1090;23181;-62
2020/12/16 08:12:41;;;;;;;23.07;13.43;;;;;;;1.38;80.07;100577.81;130527;1090;23185;-63
2020/12/16 08:15:17;;;;;;;19.73;12.70;;;;;;;1.38;79.30;100584.02;130327;1089;23201;-63
2020/12/16 08:17:46;;;;;;;17.02;11.80;;;;;;;1.39;79.00;100583.01;130487;1096;24157;-63
2020/12/16 08:20:21;;;;;;;22.73;12.83;;;;;;;1.39;78.69;100576.80;130329;1090;23859;-63
2020/12/16 08:22:50;;;;;;;27.93;16.33;;;;;;;1.39;78.84;100571.43;130540;1090;23182;-63
2020/12/16 08:25:19;;;;;;;24.23;13.73;;;;;;;1.39;79.45;100574.95;130377;1090;23259;-62
2020/12/16 08:27:48;;;;;;;24.43;14.90;;;;;;;1.39;78.62;100579.48;130331;1089;23129;-63
2020/12/16 08:30:24;;;;;;;22.17;12.50;;;;;;;1.44;79.12;100584.34;130348;1089;23178;-63
2020/12/16 08:33:03;;;;;;;22.30;11.57;;;;;;;1.45;79.23;100580.63;130553;1090;24075;-63
2020/12/16 08:35:32;;;;;;;16.93;11.50;;;;;;;1.45;79.13;100585.99;130335;1090;23248;-64
2020/12/16 08:38:07;;;;;;;21.13;13.07;;;;;;;1.46;78.98;100591.19;130540;1095;23206;-64
2020/12/16 08:40:45;;;;;;;19.10;11.77;;;;;;;1.47;79.40;100583.98;130378;1089;23274;-64
2020/12/16 08:43:24;;;;;;;17.13;12.10;;;;;;;1.46;78.89;100577.77;130511;1089;23168;-63
2020/12/16 08:46:07;;;;;;;22.27;14.53;;;;;;;1.47;78.39;100575.92;130363;1089;23227;-63
2020/12/16 08:48:39;;;;;;;23.73;14.37;;;;;;;1.45;78.86;100573.41;130485;1090;23180;-63
2020/12/16 08:51:08;;;;;;;27.50;17.05;;;;;;;1.47;78.69;100575.92;130333;1089;23287;-64
2020/12/16 08:53:46;;;;;;;27.37;16.30;;;;;;;1.46;79.10;100568.87;130497;1090;24162;-64
2020/12/16 08:56:23;;;;;;;24.17;15.00;;;;;;;1.47;78.89;100574.08;130296;1089;23148;-64
2020/12/16 08:59:16;;;;;;;22.53;14.07;;;;;;;1.47;79.74;100568.70;130551;1089;24535;-63
2020/12/16 09:01:54;;;;;;;25.67;14.80;;;;;;;1.50;79.17;100559.47;130314;1089;23175;-63
2020/12/16 09:04:32;;;;;;;25.07;14.73;;;;;;;1.51;79.81;100563.83;130522;1090;23172;-63
2020/12/16 09:07:19;;;;;;;27.13;19.20;;;;;;;1.51;79.06;100558.46;130353;1090;23783;-63
2020/12/16 09:09:47;;;;;;;24.43;15.65;;;;;;;1.53;79.70;100564.50;130330;1090;23833;-64
2020/12/16 09:12:16;;;;;;;25.83;15.70;;;;;;;1.52;79.32;100568.19;130372;1095;23249;-64
2020/12/16 09:14:51;;;;;;;26.33;17.13;;;;;;;1.52;79.40;100555.60;130507;1089;23233;-63
2020/12/16 09:17:22;;;;;;;26.40;17.47;;;;;;;1.51;79.02;100571.89;130329;1095;23417;-64
2020/12/16 09:19:49;;;;;;;24.20;14.87;;;;;;;1.52;78.86;100574.41;130524;1089;23169;-64
2020/12/16 09:22:28;;;;;;;18.13;12.37;;;;;;;1.52;78.63;100565.51;130258;1089;23223;-64
2020/12/16 09:25:00;;;;;;;20.00;12.17;;;;;;;1.54;78.49;100568.86;130460;1096;23169;-64
2020/12/16 09:27:28;;;;;;;21.87;13.40;;;;;;;1.54;78.87;100571.55;130266;1090;23188;-58
2020/12/16 09:29:55;;;;;;;21.60;13.70;;;;;;;1.51;79.51;100575.41;130541;1089;24130;-58
2020/12/16 09:32:26;;;;;;;20.33;13.10;;;;;;;1.48;78.87;100573.06;130421;1090;23164;-58
2020/12/16 09:34:54;;;;;;;23.60;15.53;;;;;;;1.48;78.99;100564.17;130481;1089;24516;-58
2020/12/16 09:37:28;;;;;;;20.63;15.13;;;;;;;1.49;79.85;100561.31;130342;1090;23269;-59
2020/12/16 09:40:06;;;;;;;29.23;18.43;;;;;;;1.49;78.98;100565.84;130496;1095;23273;-58
2020/12/16 09:42:35;;;;;;;22.03;14.60;;;;;;;1.48;79.88;100556.11;130397;1089;23219;-58
2020/12/16 09:45:18;;;;;;;21.27;13.60;;;;;;;1.50;79.31;100564.84;130454;1089;23146;-58
2020/12/16 09:47:49;;;;;;;24.43;13.53;;;;;;;1.51;79.74;100561.14;130428;1095;23162;-58
2020/12/16 09:50:27;;;;;;;18.60;11.60;;;;;;;1.52;79.11;100552.08;130483;1090;23190;-58
2020/12/16 09:53:02;;;;;;;19.62;10.95;;;;;;;1.51;79.11;100550.41;130437;1090;23166;-58
2020/12/16 09:55:30;;;;;;;23.63;12.90;;;;;;;1.53;79.72;100540.33;129951;1095;23380;-60
2020/12/16 09:58:15;;;;;;;28.57;14.77;;;;;;;1.52;79.56;100550.23;130370;1090;23326;-58
2020/12/16 10:00:44;;;;;;;30.03;14.30;;;;;;;1.51;79.00;100532.44;130505;1090;23286;-58
2020/12/16 10:03:13;;;;;;;23.13;12.60;;;;;;;1.50;78.77;100530.77;130364;1095;23158;-58
2020/12/16 10:05:42;;;;;;;25.40;14.30;;;;;;;1.48;79.07;100530.09;130526;1089;23158;-58
2020/12/16 10:08:16;;;;;;;23.10;13.17;;;;;;;1.42;78.79;100533.50;130328;1089;23945;-59
2020/12/16 10:10:44;;;;;;;33.73;14.47;;;;;;;1.42;78.86;100530.81;130560;1095;23311;-58
2020/12/16 10:13:12;;;;;;;20.20;11.05;;;;;;;1.41;79.39;100534.51;130337;1089;23862;-59
2020/12/16 10:15:44;;;;;;;12.40;8.50;;;;;;;1.42;79.52;100538.87;130575;1090;23212;-58
2020/12/16 10:18:11;;;;;;;18.10;10.40;;;;;;;1.42;79.35;100536.19;130533;1090;23160;-59
2020/12/16 10:20:38;;;;;;;18.10;10.50;;;;;;;1.44;78.87;100536.02;130458;1089;24403;-59
2020/12/16 10:23:06;;;;;;;20.07;12.27;;;;;;;1.43;79.41;100524.44;130500;1096;23885;-58
2020/12/16 10:25:34;;;;;;;18.60;11.90;;;;;;;1.45;79.18;100521.55;130347;1090;23312;-59
2020/12/16 10:28:01;;;;;;;16.65;12.00;;;;;;;1.44;78.90;100519.91;130478;1089;23847;-59
2020/12/16 10:30:29;;;;;;;18.40;11.50;;;;;;;1.44;79.66;100520.74;130368;1090;23265;-59
2020/12/16 10:32:57;;;;;;;18.53;11.67;;;;;;;1.44;78.80;100509.16;130501;1089;24365;-58
2020/12/16 10:35:24;;;;;;;16.17;11.67;;;;;;;1.42;79.70;100520.08;130340;1090;23193;-59
2020/12/16 10:37:53;;;;;;;16.57;11.50;;;;;;;1.43;79.33;100515.55;130490;1096;24787;-59
2020/12/16 10:40:21;;;;;;;19.07;9.13;;;;;;;1.37;79.07;100503.64;130329;1090;25537;-58
2020/12/16 10:42:49;;;;;;;15.93;8.93;;;;;;;1.46;79.29;100518.69;130566;1095;23165;-58
2020/12/16 10:45:19;;;;;;;11.80;7.50;;;;;;;1.46;79.31;100509.80;130360;1090;23207;-59
2020/12/16 10:47:47;;;;;;;13.60;8.07;;;;;;;1.45;78.95;100508.13;130498;1089;23224;-59
2020/12/16 10:50:14;;;;;;;10.57;7.93;;;;;;;1.41;79.45;100513.87;130347;1090;23256;-59
2020/12/16 10:52:42;;;;;;;16.60;9.45;;;;;;;1.39;78.51;100506.98;130491;1089;23178;-59
2020/12/16 10:55:10;;;;;;;13.13;9.33;;;;;;;1.38;78.77;100513.38;130332;1089;24382;-58
2020/12/16 10:57:38;;;;;;;15.13;9.73;;;;;;;1.36;79.33;100501.96;130513;1095;23854;-59
2020/12/16 11:00:13;;;;;;;14.55;10.40;;;;;;;1.34;78.93;100504.82;130346;1089;23235;-59
2020/12/16 11:02:40;;;;;;;18.47;10.90;;;;;;;1.31;78.87;100499.80;130528;1090;23145;-59
2020/12/16 11:07:26;;;;;;;11.27;7.87;;;;;;;1.29;78.81;100496.47;125587;1093;23358;-58
2020/12/16 11:09:53;;;;;;;12.15;8.60;;;;;;;1.27;78.91;100494.97;125385;1101;23382;-60
2020/12/16 11:12:23;;;;;;;16.43;10.20;;;;;;;1.27;79.04;100503.02;129804;1095;23285;-60
2020/12/16 11:14:51;;;;;;;17.70;10.33;;;;;;;1.25;78.65;100505.04;129984;1093;23167;-60
2020/12/16 11:17:18;;;;;;;21.97;12.50;;;;;;;1.26;78.81;100502.19;129857;1093;23178;-60
2020/12/16 11:19:48;;;;;;;18.57;11.57;;;;;;;1.25;79.72;100503.19;129989;1093;23226;-60
2020/12/16 11:22:15;;;;;;;17.93;12.83;;;;;;;1.23;78.85;100505.20;129831;1092;23610;-60
2020/12/16 11:24:43;;;;;;;20.35;13.80;;;;;;;1.22;79.89;100500.01;129970;1100;23189;-60
2020/12/16 11:27:13;;;;;;;20.03;14.17;;;;;;;1.20;79.60;100491.29;129774;1093;23216;-60
2020/12/16 11:29:48;;;;;;;20.30;12.97;;;;;;;1.19;79.11;100490.45;129932;1102;23159;-60
2020/12/16 11:32:16;;;;;;;19.70;12.10;;;;;;;1.21;79.49;100479.55;129800;1093;23228;-60
2020/12/16 11:34:43;;;;;;;17.17;11.23;;;;;;;1.21;79.85;100483.06;129961;1091;23274;-60
2020/12/16 11:37:12;;;;;;;17.15;12.05;;;;;;;1.21;80.23;100482.23;129815;1093;23266;-60